createdAt,value
2018-09-28T00:00:51.528Z,1018.39
2018-09-28T00:01:51.488Z,1018.38
2018-09-28T00:02:51.450Z,1018.37
2018-09-28T00:03:52.162Z,1018.40
2018-09-28T00:04:51.438Z,1018.40
2018-09-28T00:05:51.432Z,1018.40
2018-09-28T00:06:51.464Z,1018.42
2018-09-28T00:07:51.425Z,1018.43
2018-09-28T00:08:51.466Z,1018.44
2018-09-28T00:09:51.401Z,1018.44
2018-09-28T00:10:51.468Z,1018.42
2018-09-28T00:11:51.450Z,1018.41
2018-09-28T00:12:51.388Z,1018.37
2018-09-28T00:13:51.373Z,1018.36
2018-09-28T00:14:51.368Z,1018.33
2018-09-28T00:15:51.370Z,1018.35
2018-09-28T00:16:51.475Z,1018.38
2018-09-28T00:17:52.241Z,1018.40
2018-09-28T00:18:51.475Z,1018.42
2018-09-28T00:19:51.496Z,1018.43
2018-09-28T00:20:51.331Z,1018.43
2018-09-28T00:21:51.327Z,1018.46
2018-09-28T00:22:51.366Z,1018.42
2018-09-28T00:23:51.315Z,1018.45
2018-09-28T00:24:51.339Z,1018.45
2018-09-28T00:25:51.372Z,1018.43
2018-09-28T00:26:51.326Z,1018.42
2018-09-28T00:27:51.285Z,1018.41
2018-09-28T00:28:51.289Z,1018.44
2018-09-28T00:29:51.289Z,1018.46
2018-09-28T00:30:51.334Z,1018.43
2018-09-28T00:31:51.263Z,1018.41
2018-09-28T00:32:51.275Z,1018.42
2018-09-28T00:33:51.267Z,1018.38
2018-09-28T00:34:51.245Z,1018.35
2018-09-28T00:35:51.287Z,1018.36
2018-09-28T00:36:51.266Z,1018.34
2018-09-28T00:37:51.276Z,1018.35
2018-09-28T00:38:51.271Z,1018.36
2018-09-28T00:39:51.299Z,1018.34
2018-09-28T00:40:51.213Z,1018.38
2018-09-28T00:41:51.195Z,1018.35
2018-09-28T00:42:51.196Z,1018.32
2018-09-28T00:43:51.190Z,1018.33
2018-09-28T00:44:51.220Z,1018.33
2018-09-28T00:45:51.177Z,1018.36
2018-09-28T00:46:51.230Z,1018.36
2018-09-28T00:47:51.223Z,1018.36
2018-09-28T00:48:51.210Z,1018.35
2018-09-28T00:49:51.176Z,1018.35
2018-09-28T00:50:51.199Z,1018.34
2018-09-28T00:51:51.205Z,1018.30
2018-09-28T00:52:51.295Z,1018.29
2018-09-28T00:53:51.137Z,1018.28
2018-09-28T00:54:51.166Z,1018.29
2018-09-28T00:55:51.111Z,1018.28
2018-09-28T00:56:51.105Z,1018.29
2018-09-28T00:57:51.131Z,1018.30
2018-09-28T00:58:51.205Z,1018.28
2018-09-28T00:59:51.079Z,1018.26
2018-09-28T01:00:51.127Z,1018.27
2018-09-28T01:01:51.254Z,1018.25
2018-09-28T01:02:51.074Z,1018.27
2018-09-28T01:03:51.107Z,1018.23
2018-09-28T01:04:51.107Z,1018.26
2018-09-28T01:05:51.048Z,1018.28
2018-09-28T01:06:51.102Z,1018.28
2018-09-28T01:07:51.033Z,1018.23
2018-09-28T01:08:51.091Z,1018.21
2018-09-28T01:09:51.026Z,1018.22
2018-09-28T01:10:51.057Z,1018.22
2018-09-28T01:11:51.046Z,1018.20
2018-09-28T01:12:51.004Z,1018.20
2018-09-28T01:13:50.995Z,1018.22
2018-09-28T01:14:51.009Z,1018.21
2018-09-28T01:15:51.007Z,1018.19
2018-09-28T01:16:50.991Z,1018.18
2018-09-28T01:17:51.007Z,1018.18
2018-09-28T01:18:51.017Z,1018.18
2018-09-28T01:19:51.071Z,1018.21
2018-09-28T01:20:51.026Z,1018.19
2018-09-28T01:21:51.111Z,1018.22
2018-09-28T01:22:50.950Z,1018.22
2018-09-28T01:23:50.935Z,1018.22
2018-09-28T01:24:50.925Z,1018.21
2018-09-28T01:25:50.979Z,1018.19
2018-09-28T01:26:50.912Z,1018.20
2018-09-28T01:27:50.917Z,1018.22
2018-09-28T01:28:50.904Z,1018.19
2018-09-28T01:29:50.896Z,1018.19
2018-09-28T01:30:51.044Z,1018.16
2018-09-28T01:31:50.956Z,1018.17
2018-09-28T01:32:50.882Z,1018.18
2018-09-28T01:33:50.876Z,1018.18
2018-09-28T01:34:50.986Z,1018.19
2018-09-28T01:35:50.996Z,1018.15
2018-09-28T01:36:50.885Z,1018.19
2018-09-28T01:37:50.854Z,1018.20
2018-09-28T01:38:50.901Z,1018.21
2018-09-28T01:39:50.885Z,1018.19
2018-09-28T01:40:50.875Z,1018.20
2018-09-28T01:41:50.873Z,1018.18
2018-09-28T01:42:50.849Z,1018.14
2018-09-28T01:43:50.840Z,1018.19
2018-09-28T01:44:50.813Z,1018.16
2018-09-28T01:45:50.813Z,1018.18
2018-09-28T01:46:50.852Z,1018.15
2018-09-28T01:47:50.776Z,1018.18
2018-09-28T01:48:50.814Z,1018.19
2018-09-28T01:49:50.846Z,1018.17
2018-09-28T01:50:50.801Z,1018.17
2018-09-28T01:51:50.801Z,1018.16
2018-09-28T01:52:50.770Z,1018.14
2018-09-28T01:53:50.739Z,1018.14
2018-09-28T01:54:50.868Z,1018.14
2018-09-28T01:55:50.731Z,1018.16
2018-09-28T01:56:50.808Z,1018.14
2018-09-28T01:57:50.832Z,1018.14
2018-09-28T01:58:50.726Z,1018.13
2018-09-28T01:59:50.704Z,1018.12
2018-09-28T02:00:50.699Z,1018.11
2018-09-28T02:01:50.704Z,1018.12
2018-09-28T02:02:50.696Z,1018.12
2018-09-28T02:03:50.712Z,1018.08
2018-09-28T02:04:50.671Z,1018.13
2018-09-28T02:05:50.702Z,1018.14
2018-09-28T02:06:50.664Z,1018.13
2018-09-28T02:07:50.676Z,1018.12
2018-09-28T02:08:50.697Z,1018.12
2018-09-28T02:09:50.636Z,1018.14
2018-09-28T02:10:50.640Z,1018.14
2018-09-28T02:11:50.738Z,1018.14
2018-09-28T02:12:50.759Z,1018.15
2018-09-28T02:13:50.612Z,1018.15
2018-09-28T02:14:50.605Z,1018.15
2018-09-28T02:15:50.761Z,1018.14
2018-09-28T02:16:50.655Z,1018.17
2018-09-28T02:17:50.651Z,1018.14
2018-09-28T02:18:50.664Z,1018.18
2018-09-28T02:19:50.700Z,1018.17
2018-09-28T02:20:50.764Z,1018.13
2018-09-28T02:21:50.634Z,1018.13
2018-09-28T02:22:50.552Z,1018.12
2018-09-28T02:23:50.601Z,1018.12
2018-09-28T02:24:50.566Z,1018.14
2018-09-28T02:25:50.578Z,1018.17
2018-09-28T02:26:50.535Z,1018.16
2018-09-28T02:27:50.532Z,1018.22
2018-09-28T02:28:50.554Z,1018.20
2018-09-28T02:29:50.567Z,1018.20
2018-09-28T02:30:50.557Z,1018.24
2018-09-28T02:31:50.666Z,1018.23
2018-09-28T02:32:50.487Z,1018.24
2018-09-28T02:33:50.491Z,1018.28
2018-09-28T02:34:50.626Z,1018.24
2018-09-28T02:35:50.616Z,1018.25
2018-09-28T02:36:50.481Z,1018.22
2018-09-28T02:37:50.470Z,1018.17
2018-09-28T02:38:50.478Z,1018.19
2018-09-28T02:39:50.467Z,1018.16
2018-09-28T02:40:50.559Z,1018.15
2018-09-28T02:41:50.468Z,1018.19
2018-09-28T02:42:50.426Z,1018.18
2018-09-28T02:43:50.430Z,1018.19
2018-09-28T02:44:50.455Z,1018.20
2018-09-28T02:45:50.419Z,1018.17
2018-09-28T02:46:50.404Z,1018.20
2018-09-28T02:47:50.452Z,1018.22
2018-09-28T02:48:50.434Z,1018.23
2018-09-28T02:49:50.518Z,1018.25
2018-09-28T02:50:50.438Z,1018.26
2018-09-28T02:51:50.379Z,1018.27
2018-09-28T02:52:50.358Z,1018.30
2018-09-28T02:53:50.373Z,1018.27
2018-09-28T02:54:50.409Z,1018.25
2018-09-28T02:55:50.343Z,1018.19
2018-09-28T02:56:50.428Z,1018.17
2018-09-28T02:57:50.329Z,1018.14
2018-09-28T02:58:50.325Z,1018.14
2018-09-28T02:59:50.326Z,1018.13
2018-09-28T03:00:50.324Z,1018.11
2018-09-28T03:01:50.307Z,1018.09
2018-09-28T03:02:50.352Z,1018.09
2018-09-28T03:03:50.328Z,1018.11
2018-09-28T03:04:50.303Z,1018.10
2018-09-28T03:05:50.280Z,1018.09
2018-09-28T03:06:50.266Z,1018.09
2018-09-28T03:07:50.300Z,1018.06
2018-09-28T03:08:50.374Z,1018.06
2018-09-28T03:09:50.317Z,1018.06
2018-09-28T03:10:50.381Z,1018.07
2018-09-28T03:11:50.247Z,1018.04
2018-09-28T03:12:50.236Z,1018.06
2018-09-28T03:13:50.338Z,1018.06
2018-09-28T03:14:50.284Z,1018.07
2018-09-28T03:15:50.258Z,1018.07
2018-09-28T03:16:50.239Z,1018.12
2018-09-28T03:17:50.208Z,1018.12
2018-09-28T03:18:50.254Z,1018.16
2018-09-28T03:19:50.190Z,1018.18
2018-09-28T03:20:50.205Z,1018.22
2018-09-28T03:21:50.262Z,1018.15
2018-09-28T03:22:50.183Z,1018.12
2018-09-28T03:23:50.165Z,1018.15
2018-09-28T03:24:50.156Z,1018.16
2018-09-28T03:25:50.200Z,1018.10
2018-09-28T03:26:50.313Z,1018.12
2018-09-28T03:27:50.169Z,1018.15
2018-09-28T03:28:50.131Z,1018.21
2018-09-28T03:29:50.300Z,1018.14
2018-09-28T03:30:50.164Z,1018.16
2018-09-28T03:31:50.114Z,1018.16
2018-09-28T03:32:50.141Z,1018.14
2018-09-28T03:33:50.146Z,1018.11
2018-09-28T03:34:50.097Z,1018.18
2018-09-28T03:35:50.129Z,1018.16
2018-09-28T03:36:50.130Z,1018.14
2018-09-28T03:37:50.073Z,1018.16
2018-09-28T03:38:50.074Z,1018.16
2018-09-28T03:39:50.067Z,1018.10
2018-09-28T03:40:50.051Z,1018.08
2018-09-28T03:41:50.109Z,1018.06
2018-09-28T03:42:50.044Z,1018.05
2018-09-28T03:43:50.067Z,1018.06
2018-09-28T03:44:50.077Z,1018.07
2018-09-28T03:45:50.042Z,1018.06
2018-09-28T03:46:50.033Z,1018.02
2018-09-28T03:47:50.166Z,1018.05
2018-09-28T03:48:50.177Z,1018.03
2018-09-28T03:49:49.996Z,1018.04
2018-09-28T03:50:50.010Z,1018.04
2018-09-28T03:51:50.314Z,1017.98
2018-09-28T03:52:49.988Z,1018.02
2018-09-28T03:53:49.969Z,1018.03
2018-09-28T03:54:50.019Z,1018.08
2018-09-28T03:55:49.959Z,1018.09
2018-09-28T03:56:49.960Z,1018.08
2018-09-28T03:57:49.955Z,1018.08
2018-09-28T03:58:49.979Z,1018.10
2018-09-28T03:59:50.118Z,1018.15
2018-09-28T04:00:50.003Z,1018.18
2018-09-28T04:01:49.939Z,1018.19
2018-09-28T04:02:49.966Z,1018.19
2018-09-28T04:03:49.910Z,1018.13
2018-09-28T04:04:49.950Z,1018.12
2018-09-28T04:05:49.913Z,1018.17
2018-09-28T04:06:49.910Z,1018.18
2018-09-28T04:07:49.947Z,1018.19
2018-09-28T04:08:49.872Z,1018.18
2018-09-28T04:09:50.001Z,1018.13
2018-09-28T04:10:49.870Z,1018.15
2018-09-28T04:11:49.987Z,1018.18
2018-09-28T04:12:49.899Z,1018.22
2018-09-28T04:13:49.862Z,1018.19
2018-09-28T04:14:49.839Z,1018.17
2018-09-28T04:15:49.857Z,1018.11
2018-09-28T04:16:49.828Z,1018.14
2018-09-28T04:17:49.841Z,1018.17
2018-09-28T04:18:49.810Z,1018.27
2018-09-28T04:19:49.854Z,1018.22
2018-09-28T04:20:49.859Z,1018.23
2018-09-28T04:21:49.935Z,1018.24
2018-09-28T04:22:49.809Z,1018.25
2018-09-28T04:23:49.840Z,1018.30
2018-09-28T04:24:49.800Z,1018.35
2018-09-28T04:25:49.925Z,1018.33
2018-09-28T04:26:49.759Z,1018.32
2018-09-28T04:27:49.877Z,1018.34
2018-09-28T04:28:49.745Z,1018.37
2018-09-28T04:29:49.780Z,1018.40
2018-09-28T04:30:49.840Z,1018.43
2018-09-28T04:31:49.758Z,1018.42
2018-09-28T04:32:49.770Z,1018.40
2018-09-28T04:33:49.770Z,1018.40
2018-09-28T04:34:49.847Z,1018.40
2018-09-28T04:35:49.708Z,1018.45
2018-09-28T04:36:49.738Z,1018.46
2018-09-28T04:37:49.694Z,1018.47
2018-09-28T04:38:49.738Z,1018.47
2018-09-28T04:39:49.683Z,1018.54
2018-09-28T04:40:49.670Z,1018.51
2018-09-28T04:41:49.739Z,1018.51
2018-09-28T04:42:49.653Z,1018.54
2018-09-28T04:43:49.698Z,1018.57
2018-09-28T04:44:49.646Z,1018.60
2018-09-28T04:45:49.747Z,1018.62
2018-09-28T04:46:49.685Z,1018.60
2018-09-28T04:47:49.704Z,1018.60
2018-09-28T04:48:49.662Z,1018.60
2018-09-28T04:49:49.763Z,1018.62
2018-09-28T04:50:49.662Z,1018.57
2018-09-28T04:51:49.625Z,1018.59
2018-09-28T04:52:49.601Z,1018.62
2018-09-28T04:53:49.721Z,1018.61
2018-09-28T04:54:49.584Z,1018.61
2018-09-28T04:55:49.605Z,1018.60
2018-09-28T04:56:49.571Z,1018.59
2018-09-28T04:57:49.568Z,1018.60
2018-09-28T04:58:49.558Z,1018.57
2018-09-28T04:59:49.715Z,1018.62
2018-09-28T05:00:49.548Z,1018.60
2018-09-28T05:01:49.533Z,1018.60
2018-09-28T05:02:49.591Z,1018.59
2018-09-28T05:03:49.524Z,1018.63
2018-09-28T05:04:49.550Z,1018.59
2018-09-28T05:05:49.516Z,1018.61
2018-09-28T05:06:49.504Z,1018.63
2018-09-28T05:07:49.504Z,1018.63
2018-09-28T05:08:49.515Z,1018.68
2018-09-28T05:09:49.540Z,1018.69
2018-09-28T05:10:49.474Z,1018.74
2018-09-28T05:11:49.491Z,1018.72
2018-09-28T05:12:49.490Z,1018.73
2018-09-28T05:13:49.475Z,1018.73
2018-09-28T05:14:49.448Z,1018.72
2018-09-28T05:15:49.446Z,1018.76
2018-09-28T05:16:49.443Z,1018.77
2018-09-28T05:17:49.573Z,1018.77
2018-09-28T05:18:49.464Z,1018.84
2018-09-28T05:19:49.469Z,1018.87
2018-09-28T05:20:49.450Z,1018.85
2018-09-28T05:21:49.472Z,1018.88
2018-09-28T05:22:49.413Z,1018.94
2018-09-28T05:23:50.231Z,1018.91
2018-09-28T05:24:49.390Z,1018.89
2018-09-28T05:25:49.400Z,1018.92
2018-09-28T05:26:49.427Z,1018.95
2018-09-28T05:27:49.369Z,1018.97
2018-09-28T05:28:49.406Z,1018.94
2018-09-28T05:29:49.371Z,1018.99
2018-09-28T05:30:53.972Z,1018.94
2018-09-28T05:31:49.501Z,1018.94
2018-09-28T05:32:49.553Z,1018.98
2018-09-28T05:33:49.353Z,1019.00
2018-09-28T05:34:49.328Z,1018.97
2018-09-28T05:35:49.350Z,1018.98
2018-09-28T05:36:49.311Z,1018.99
2018-09-28T05:37:49.344Z,1019.01
2018-09-28T05:38:49.353Z,1019.03
2018-09-28T05:39:49.290Z,1019.04
2018-09-28T05:40:49.278Z,1019.06
2018-09-28T05:41:49.285Z,1019.04
2018-09-28T05:42:49.335Z,1019.06
2018-09-28T05:43:49.328Z,1019.07
2018-09-28T05:44:49.296Z,1019.04
2018-09-28T05:45:49.246Z,1019.08
2018-09-28T05:46:49.351Z,1019.10
2018-09-28T05:47:49.255Z,1019.06
2018-09-28T05:48:49.272Z,1019.08
2018-09-28T05:49:49.420Z,1019.12
2018-09-28T05:50:49.213Z,1019.13
2018-09-28T05:51:49.250Z,1019.17
2018-09-28T05:52:49.274Z,1019.20
2018-09-28T05:53:49.255Z,1019.17
2018-09-28T05:54:49.302Z,1019.17
2018-09-28T05:55:49.185Z,1019.15
2018-09-28T05:56:49.179Z,1019.18
2018-09-28T05:57:49.176Z,1019.20
2018-09-28T05:58:49.170Z,1019.22
2018-09-28T05:59:49.165Z,1019.23
2018-09-28T06:00:49.211Z,1019.26
2018-09-28T06:01:49.157Z,1019.23
2018-09-28T06:02:49.184Z,1019.25
2018-09-28T06:03:49.130Z,1019.26
2018-09-28T06:04:49.134Z,1019.29
2018-09-28T06:05:49.121Z,1019.34
2018-09-28T06:06:49.120Z,1019.37
2018-09-28T06:07:49.230Z,1019.32
2018-09-28T06:08:49.249Z,1019.34
2018-09-28T06:09:49.227Z,1019.36
2018-09-28T06:10:49.091Z,1019.39
2018-09-28T06:11:49.112Z,1019.40
2018-09-28T06:12:49.757Z,1019.43
2018-09-28T06:13:49.125Z,1019.45
2018-09-28T06:14:49.122Z,1019.45
2018-09-28T06:15:49.055Z,1019.47
2018-09-28T06:16:49.063Z,1019.49
2018-09-28T06:17:49.087Z,1019.45
2018-09-28T06:18:49.097Z,1019.44
2018-09-28T06:19:49.042Z,1019.46
2018-09-28T06:20:49.051Z,1019.50
2018-09-28T06:21:49.089Z,1019.55
2018-09-28T06:22:49.005Z,1019.56
2018-09-28T06:23:49.030Z,1019.53
2018-09-28T06:24:49.179Z,1019.52
2018-09-28T06:25:49.171Z,1019.55
2018-09-28T06:26:49.069Z,1019.62
2018-09-28T06:27:48.989Z,1019.64
2018-09-28T06:28:48.984Z,1019.60
2018-09-28T06:29:48.980Z,1019.59
2018-09-28T06:30:49.009Z,1019.63
2018-09-28T06:31:48.960Z,1019.63
2018-09-28T06:32:48.952Z,1019.62
2018-09-28T06:33:48.942Z,1019.64
2018-09-28T06:34:48.931Z,1019.63
2018-09-28T06:35:49.027Z,1019.62
2018-09-28T06:36:48.923Z,1019.63
2018-09-28T06:37:48.948Z,1019.63
2018-09-28T06:38:48.913Z,1019.62
2018-09-28T06:39:48.906Z,1019.65
2018-09-28T06:40:48.891Z,1019.64
2018-09-28T06:41:48.985Z,1019.69
2018-09-28T06:42:48.886Z,1019.73
2018-09-28T06:43:48.875Z,1019.70
2018-09-28T06:44:49.109Z,1019.71
2018-09-28T06:45:48.865Z,1019.66
2018-09-28T06:46:48.863Z,1019.73
2018-09-28T06:47:48.860Z,1019.67
2018-09-28T06:48:48.853Z,1019.67
2018-09-28T06:49:48.841Z,1019.73
2018-09-28T06:50:48.890Z,1019.73
2018-09-28T06:51:48.953Z,1019.79
2018-09-28T06:52:48.867Z,1019.79
2018-09-28T06:53:48.863Z,1019.76
2018-09-28T06:54:48.810Z,1019.77
2018-09-28T06:55:48.802Z,1019.78
2018-09-28T06:56:48.794Z,1019.78
2018-09-28T06:57:48.786Z,1019.77
2018-09-28T06:58:48.930Z,1019.78
2018-09-28T06:59:48.840Z,1019.77
2018-09-28T07:00:48.778Z,1019.73
2018-09-28T07:01:48.796Z,1019.74
2018-09-28T07:02:48.761Z,1019.70
2018-09-28T07:03:48.745Z,1019.74
2018-09-28T07:04:48.777Z,1019.76
2018-09-28T07:05:48.785Z,1019.76
2018-09-28T07:06:48.735Z,1019.80
2018-09-28T07:07:48.779Z,1019.85
2018-09-28T07:08:48.776Z,1019.87
2018-09-28T07:09:48.714Z,1019.92
2018-09-28T07:10:48.698Z,1019.91
2018-09-28T07:11:48.757Z,1019.95
2018-09-28T07:12:48.687Z,1019.95
2018-09-28T07:13:48.683Z,1019.96
2018-09-28T07:14:48.677Z,1019.93
2018-09-28T07:15:48.724Z,1019.97
2018-09-28T07:16:48.783Z,1020.00
2018-09-28T07:17:48.761Z,1020.01
2018-09-28T07:18:48.664Z,1020.03
2018-09-28T07:19:48.772Z,1020.08
2018-09-28T07:20:48.772Z,1020.06
2018-09-28T07:21:48.643Z,1020.14
2018-09-28T07:22:48.751Z,1020.13
2018-09-28T07:23:48.644Z,1020.16
2018-09-28T07:24:48.681Z,1020.15
2018-09-28T07:25:48.626Z,1020.21
2018-09-28T07:26:48.592Z,1020.23
2018-09-28T07:27:48.629Z,1020.18
2018-09-28T07:28:48.590Z,1020.18
2018-09-28T07:29:48.730Z,1020.17
2018-09-28T07:30:48.659Z,1020.14
2018-09-28T07:31:48.685Z,1020.14
2018-09-28T07:32:48.687Z,1020.21
2018-09-28T07:33:48.723Z,1020.23
2018-09-28T07:34:48.573Z,1020.27
2018-09-28T07:35:48.542Z,1020.29
2018-09-28T07:36:48.644Z,1020.31
2018-09-28T07:37:48.593Z,1020.34
2018-09-28T07:38:48.510Z,1020.37
2018-09-28T07:39:48.512Z,1020.35
2018-09-28T07:40:48.516Z,1020.41
2018-09-28T07:41:48.534Z,1020.40
2018-09-28T07:42:48.495Z,1020.42
2018-09-28T07:43:48.520Z,1020.42
2018-09-28T07:44:48.489Z,1020.43
2018-09-28T07:45:48.479Z,1020.44
2018-09-28T07:46:48.467Z,1020.46
2018-09-28T07:47:48.500Z,1020.47
2018-09-28T07:48:48.467Z,1020.46
2018-09-28T07:49:48.457Z,1020.45
2018-09-28T07:50:48.445Z,1020.50
2018-09-28T07:51:48.443Z,1020.53
2018-09-28T07:52:48.439Z,1020.54
2018-09-28T07:53:48.425Z,1020.58
2018-09-28T07:54:48.425Z,1020.66
2018-09-28T07:55:48.441Z,1020.65
2018-09-28T07:56:48.402Z,1020.67
2018-09-28T07:57:48.398Z,1020.64
2018-09-28T07:58:48.408Z,1020.72
2018-09-28T07:59:48.397Z,1020.70
2018-09-28T08:00:48.387Z,1020.69
2018-09-28T08:01:48.380Z,1020.69
2018-09-28T08:02:48.371Z,1020.70
2018-09-28T08:03:48.447Z,1020.72
2018-09-28T08:04:48.362Z,1020.75
2018-09-28T08:05:48.362Z,1020.77
2018-09-28T08:06:48.352Z,1020.82
2018-09-28T08:07:48.337Z,1020.83
2018-09-28T08:08:48.335Z,1020.84
2018-09-28T08:09:48.324Z,1020.87
2018-09-28T08:10:48.319Z,1020.81
2018-09-28T08:11:48.312Z,1020.85
2018-09-28T08:12:48.305Z,1020.87
2018-09-28T08:13:48.292Z,1020.85
2018-09-28T08:14:48.287Z,1020.89
2018-09-28T08:15:48.288Z,1020.88
2018-09-28T08:16:48.286Z,1020.87
2018-09-28T08:17:48.288Z,1020.90
2018-09-28T08:18:48.283Z,1020.87
2018-09-28T08:19:48.264Z,1020.95
2018-09-28T08:20:48.254Z,1020.91
2018-09-28T08:21:48.248Z,1020.90
2018-09-28T08:22:48.238Z,1020.92
2018-09-28T08:23:48.235Z,1020.95
2018-09-28T08:24:48.346Z,1020.92
2018-09-28T08:25:48.233Z,1020.93
2018-09-28T08:26:48.257Z,1020.92
2018-09-28T08:27:48.225Z,1020.89
2018-09-28T08:28:48.203Z,1020.95
2018-09-28T08:29:48.193Z,1020.95
2018-09-28T08:30:48.196Z,1021.01
2018-09-28T08:31:48.195Z,1021.01
2018-09-28T08:32:48.193Z,1021.08
2018-09-28T08:33:48.174Z,1021.08
2018-09-28T08:34:48.173Z,1021.08
2018-09-28T08:35:48.158Z,1021.15
2018-09-28T08:36:48.202Z,1021.18
2018-09-28T08:37:48.162Z,1021.15
2018-09-28T08:38:48.137Z,1021.18
2018-09-28T08:39:48.157Z,1021.18
2018-09-28T08:40:48.133Z,1021.13
2018-09-28T08:41:48.143Z,1021.16
2018-09-28T08:42:48.123Z,1021.17
2018-09-28T08:43:48.137Z,1021.17
2018-09-28T08:44:48.096Z,1021.16
2018-09-28T08:45:48.105Z,1021.15
2018-09-28T08:46:48.130Z,1021.17
2018-09-28T08:47:48.087Z,1021.17
2018-09-28T08:48:48.089Z,1021.19
2018-09-28T08:49:48.077Z,1021.23
2018-09-28T08:50:48.069Z,1021.24
2018-09-28T08:51:48.066Z,1021.22
2018-09-28T08:52:48.070Z,1021.24
2018-09-28T08:53:48.043Z,1021.26
2018-09-28T08:54:48.032Z,1021.22
2018-09-28T08:55:48.024Z,1021.26
2018-09-28T08:56:48.019Z,1021.29
2018-09-28T08:57:48.037Z,1021.30
2018-09-28T08:58:48.010Z,1021.26
2018-09-28T08:59:48.012Z,1021.29
2018-09-28T09:00:48.001Z,1021.28
2018-09-28T09:01:47.995Z,1021.30
2018-09-28T09:02:47.988Z,1021.30
2018-09-28T09:03:47.981Z,1021.35
2018-09-28T09:04:47.973Z,1021.39
2018-09-28T09:05:47.982Z,1021.41
2018-09-28T09:06:47.955Z,1021.42
2018-09-28T09:07:47.958Z,1021.49
2018-09-28T09:08:47.943Z,1021.47
2018-09-28T09:09:47.950Z,1021.50
2018-09-28T09:10:47.939Z,1021.51
2018-09-28T09:11:47.929Z,1021.52
2018-09-28T09:12:47.918Z,1021.55
2018-09-28T09:13:47.916Z,1021.56
2018-09-28T09:14:47.919Z,1021.55
2018-09-28T09:15:47.893Z,1021.57
2018-09-28T09:16:47.893Z,1021.56
2018-09-28T09:17:47.916Z,1021.56
2018-09-28T09:18:47.889Z,1021.59
2018-09-28T09:19:47.876Z,1021.57
2018-09-28T09:20:47.883Z,1021.61
2018-09-28T09:21:47.861Z,1021.62
2018-09-28T09:22:47.861Z,1021.59
2018-09-28T09:23:47.867Z,1021.60
2018-09-28T09:24:47.848Z,1021.62
2018-09-28T09:25:47.836Z,1021.61
2018-09-28T09:26:47.835Z,1021.63
2018-09-28T09:27:47.821Z,1021.66
2018-09-28T09:28:47.829Z,1021.66
2018-09-28T09:29:47.829Z,1021.64
2018-09-28T09:30:47.825Z,1021.63
2018-09-28T09:31:47.789Z,1021.62
2018-09-28T09:32:47.794Z,1021.67
2018-09-28T09:33:47.797Z,1021.65
2018-09-28T09:34:47.784Z,1021.62
2018-09-28T09:35:47.775Z,1021.66
2018-09-28T09:36:47.772Z,1021.67
2018-09-28T09:37:47.754Z,1021.66
2018-09-28T09:38:47.753Z,1021.65
2018-09-28T09:39:47.749Z,1021.66
2018-09-28T09:40:47.750Z,1021.65
2018-09-28T09:41:47.740Z,1021.65
2018-09-28T09:42:47.721Z,1021.64
2018-09-28T09:43:47.724Z,1021.63
2018-09-28T09:44:47.706Z,1021.61
2018-09-28T09:45:47.709Z,1021.68
2018-09-28T09:46:47.708Z,1021.66
2018-09-28T09:47:47.698Z,1021.69
2018-09-28T09:48:47.686Z,1021.70
2018-09-28T09:49:47.682Z,1021.69
2018-09-28T09:50:47.668Z,1021.71
2018-09-28T09:51:47.673Z,1021.76
2018-09-28T09:52:47.671Z,1021.73
2018-09-28T09:53:47.659Z,1021.82
2018-09-28T09:54:47.652Z,1021.83
2018-09-28T09:55:47.662Z,1021.85
2018-09-28T09:56:47.636Z,1021.87
2018-09-28T09:57:47.688Z,1021.87
2018-09-28T09:58:47.634Z,1021.91
2018-09-28T09:59:47.612Z,1021.89
2018-09-28T10:00:47.603Z,1021.85
2018-09-28T10:01:47.603Z,1021.92
2018-09-28T10:02:47.599Z,1021.87
2018-09-28T10:03:47.584Z,1021.88
2018-09-28T10:04:47.587Z,1021.87
2018-09-28T10:05:47.577Z,1021.86
2018-09-28T10:06:47.587Z,1021.87
2018-09-28T10:07:47.564Z,1021.89
2018-09-28T10:08:47.558Z,1021.91
2018-09-28T10:09:47.607Z,1021.93
2018-09-28T10:10:47.543Z,1021.96
2018-09-28T10:11:47.537Z,1021.97
2018-09-28T10:12:47.593Z,1021.97
2018-09-28T10:13:47.529Z,1021.91
2018-09-28T10:14:47.544Z,1021.95
2018-09-28T10:15:47.523Z,1021.97
2018-09-28T10:16:47.515Z,1022.00
2018-09-28T10:17:47.509Z,1021.98
2018-09-28T10:18:47.495Z,1022.00
2018-09-28T10:19:47.575Z,1022.03
2018-09-28T10:20:47.512Z,1022.01
2018-09-28T10:21:47.466Z,1022.01
2018-09-28T10:22:47.474Z,1022.04
2018-09-28T10:23:47.461Z,1022.06
2018-09-28T10:24:47.458Z,1022.09
2018-09-28T10:25:47.447Z,1022.05
2018-09-28T10:26:47.439Z,1022.09
2018-09-28T10:27:47.505Z,1022.11
2018-09-28T10:28:47.430Z,1022.15
2018-09-28T10:29:47.432Z,1022.13
2018-09-28T10:30:47.420Z,1022.15
2018-09-28T10:31:47.412Z,1022.16
2018-09-28T10:32:47.417Z,1022.14
2018-09-28T10:33:47.411Z,1022.14
2018-09-28T10:34:47.467Z,1022.17
2018-09-28T10:35:47.388Z,1022.20
2018-09-28T10:36:47.382Z,1022.19
2018-09-28T10:37:47.384Z,1022.22
2018-09-28T10:38:47.377Z,1022.20
2018-09-28T10:39:47.422Z,1022.19
2018-09-28T10:40:47.371Z,1022.22
2018-09-28T10:41:47.360Z,1022.18
2018-09-28T10:42:47.349Z,1022.23
2018-09-28T10:43:47.332Z,1022.22
2018-09-28T10:44:47.325Z,1022.22
2018-09-28T10:45:47.321Z,1022.23
2018-09-28T10:46:47.393Z,1022.18
2018-09-28T10:47:47.318Z,1022.20
2018-09-28T10:48:47.320Z,1022.19
2018-09-28T10:49:47.299Z,1022.19
2018-09-28T10:50:47.318Z,1022.16
2018-09-28T10:51:47.363Z,1022.23
2018-09-28T10:52:47.400Z,1022.15
2018-09-28T10:53:47.273Z,1022.14
2018-09-28T10:54:47.262Z,1022.17
2018-09-28T10:55:47.258Z,1022.15
2018-09-28T10:56:47.252Z,1022.14
2018-09-28T10:57:47.229Z,1022.17
2018-09-28T10:58:47.298Z,1022.12
2018-09-28T10:59:47.224Z,1022.18
2018-09-28T11:00:47.226Z,1022.22
2018-09-28T11:01:47.212Z,1022.21
2018-09-28T11:02:47.219Z,1022.27
2018-09-28T11:03:47.259Z,1022.24
2018-09-28T11:04:47.220Z,1022.25
2018-09-28T11:05:47.193Z,1022.24
2018-09-28T11:06:47.185Z,1022.25
2018-09-28T11:07:47.191Z,1022.25
2018-09-28T11:08:47.193Z,1022.26
2018-09-28T11:09:47.238Z,1022.29
2018-09-28T11:10:47.226Z,1022.28
2018-09-28T11:11:47.149Z,1022.31
2018-09-28T11:12:47.139Z,1022.31
2018-09-28T11:13:47.136Z,1022.30
2018-09-28T11:14:47.127Z,1022.33
2018-09-28T11:15:47.174Z,1022.33
2018-09-28T11:16:47.119Z,1022.27
2018-09-28T11:17:47.107Z,1022.26
2018-09-28T11:18:47.104Z,1022.27
2018-09-28T11:19:47.100Z,1022.28
2018-09-28T11:20:47.097Z,1022.29
2018-09-28T11:21:47.133Z,1022.30
2018-09-28T11:22:47.079Z,1022.33
2018-09-28T11:23:47.065Z,1022.32
2018-09-28T11:24:47.069Z,1022.33
2018-09-28T11:25:47.056Z,1022.31
2018-09-28T11:26:47.050Z,1022.27
2018-09-28T11:27:47.103Z,1022.28
2018-09-28T11:28:47.043Z,1022.28
2018-09-28T11:29:47.039Z,1022.22
2018-09-28T11:30:47.022Z,1022.24
2018-09-28T11:31:47.016Z,1022.27
2018-09-28T11:32:47.010Z,1022.26
2018-09-28T11:33:47.081Z,1022.27
2018-09-28T11:34:47.017Z,1022.24
2018-09-28T11:35:47.005Z,1022.28
2018-09-28T11:36:46.982Z,1022.31
2018-09-28T11:37:47.026Z,1022.27
2018-09-28T11:38:46.971Z,1022.31
2018-09-28T11:39:47.011Z,1022.32
2018-09-28T11:40:46.957Z,1022.32
2018-09-28T11:41:46.962Z,1022.33
2018-09-28T11:42:46.937Z,1022.31
2018-09-28T11:43:46.941Z,1022.32
2018-09-28T11:44:46.950Z,1022.35
2018-09-28T11:45:46.958Z,1022.37
2018-09-28T11:46:46.945Z,1022.33
2018-09-28T11:47:46.926Z,1022.33
2018-09-28T11:48:46.910Z,1022.36
2018-09-28T11:49:46.912Z,1022.35
2018-09-28T11:50:46.892Z,1022.42
2018-09-28T11:51:46.934Z,1022.39
2018-09-28T11:52:46.888Z,1022.36
2018-09-28T11:53:46.875Z,1022.40
2018-09-28T11:54:46.867Z,1022.37
2018-09-28T11:55:46.857Z,1022.41
2018-09-28T11:56:46.876Z,1022.39
2018-09-28T11:57:46.915Z,1022.43
2018-09-28T11:58:46.847Z,1022.34
2018-09-28T11:59:46.843Z,1022.36
2018-09-28T12:00:46.822Z,1022.31
2018-09-28T12:01:46.832Z,1022.25
2018-09-28T12:02:46.818Z,1022.31
2018-09-28T12:03:46.896Z,1022.29
2018-09-28T12:04:46.814Z,1022.32
2018-09-28T12:05:46.805Z,1022.36